sensor_id;sensor_type;location;lat;lon;timestamp;P1;durP1;ratioP1;P2;durP2;ratioP2
76357;SDS011;65185;21.060;105.826;2023-02-17T00:00:29;118.35;;;66.70;;
76357;SDS011;65185;21.060;105.826;2023-02-17T00:02:56;119.97;;;65.30;;
76357;SDS011;65185;21.060;105.826;2023-02-17T00:05:23;111.25;;;63.00;;
76357;SDS011;65185;21.060;105.826;2023-02-17T00:07:50;113.38;;;65.05;;
76357;SDS011;65185;21.060;105.826;2023-02-17T00:10:17;111.68;;;65.93;;
76357;SDS011;65185;21.060;105.826;2023-02-17T00:12:44;114.22;;;65.07;;
76357;SDS011;65185;21.060;105.826;2023-02-17T00:15:11;123.05;;;68.97;;
76357;SDS011;65185;21.060;105.826;2023-02-17T00:17:38;119.57;;;67.70;;
76357;SDS011;65185;21.060;105.826;2023-02-17T00:20:05;122.25;;;69.75;;
76357;SDS011;65185;21.060;105.826;2023-02-17T00:22:32;123.13;;;71.40;;
76357;SDS011;65185;21.060;105.826;2023-02-17T00:24:58;128.30;;;72.35;;
76357;SDS011;65185;21.060;105.826;2023-02-17T00:27:25;117.38;;;67.72;;
76357;SDS011;65185;21.060;105.826;2023-02-17T00:29:52;122.15;;;68.68;;
76357;SDS011;65185;21.060;105.826;2023-02-17T00:32:18;123.97;;;69.65;;
76357;SDS011;65185;21.060;105.826;2023-02-17T00:34:45;120.28;;;67.90;;
76357;SDS011;65185;21.060;105.826;2023-02-17T00:37:12;123.45;;;70.65;;
76357;SDS011;65185;21.060;105.826;2023-02-17T00:39:38;121.30;;;67.90;;
76357;SDS011;65185;21.060;105.826;2023-02-17T00:42:05;127.43;;;70.97;;
76357;SDS011;65185;21.060;105.826;2023-02-17T00:44:32;125.00;;;70.00;;
76357;SDS011;65185;21.060;105.826;2023-02-17T00:46:58;136.82;;;72.55;;
76357;SDS011;65185;21.060;105.826;2023-02-17T00:49:28;129.65;;;75.30;;
76357;SDS011;65185;21.060;105.826;2023-02-17T00:51:57;123.05;;;70.15;;
76357;SDS011;65185;21.060;105.826;2023-02-17T00:54:26;123.18;;;71.78;;
76357;SDS011;65185;21.060;105.826;2023-02-17T00:56:53;123.20;;;70.20;;
76357;SDS011;65185;21.060;105.826;2023-02-17T00:59:20;123.28;;;76.43;;
76357;SDS011;65185;21.060;105.826;2023-02-17T01:01:47;134.43;;;78.68;;
76357;SDS011;65185;21.060;105.826;2023-02-17T01:04:13;140.48;;;75.20;;
76357;SDS011;65185;21.060;105.826;2023-02-17T01:06:40;128.48;;;74.28;;
76357;SDS011;65185;21.060;105.826;2023-02-17T01:09:07;133.90;;;76.25;;
76357;SDS011;65185;21.060;105.826;2023-02-17T01:11:38;144.57;;;84.47;;
76357;SDS011;65185;21.060;105.826;2023-02-17T01:14:05;138.55;;;76.60;;
76357;SDS011;65185;21.060;105.826;2023-02-17T01:16:34;146.00;;;82.65;;
76357;SDS011;65185;21.060;105.826;2023-02-17T01:19:05;135.57;;;78.55;;
76357;SDS011;65185;21.060;105.826;2023-02-17T01:21:34;142.70;;;75.65;;
76357;SDS011;65185;21.060;105.826;2023-02-17T01:24:01;142.00;;;75.18;;
76357;SDS011;65185;21.060;105.826;2023-02-17T01:26:29;133.15;;;73.28;;
76357;SDS011;65185;21.060;105.826;2023-02-17T01:28:58;140.65;;;74.30;;
76357;SDS011;65185;21.060;105.826;2023-02-17T01:31:25;130.98;;;71.97;;
76357;SDS011;65185;21.060;105.826;2023-02-17T01:33:57;137.30;;;73.07;;
76357;SDS011;65185;21.060;105.826;2023-02-17T01:36:25;135.68;;;72.65;;
76357;SDS011;65185;21.060;105.826;2023-02-17T01:38:56;137.85;;;71.80;;
76357;SDS011;65185;21.060;105.826;2023-02-17T01:41:24;131.90;;;74.57;;
76357;SDS011;65185;21.060;105.826;2023-02-17T01:46:36;134.77;;;74.45;;
76357;SDS011;65185;21.060;105.826;2023-02-17T01:49:06;135.40;;;74.40;;
76357;SDS011;65185;21.060;105.826;2023-02-17T01:52:10;125.50;;;70.85;;
76357;SDS011;65185;21.060;105.826;2023-02-17T01:57:13;140.95;;;78.38;;
76357;SDS011;65185;21.060;105.826;2023-02-17T01:59:42;150.75;;;81.88;;
76357;SDS011;65185;21.060;105.826;2023-02-17T02:02:10;137.13;;;75.38;;
76357;SDS011;65185;21.060;105.826;2023-02-17T02:04:38;149.95;;;79.18;;
76357;SDS011;65185;21.060;105.826;2023-02-17T02:07:09;151.00;;;79.30;;
76357;SDS011;65185;21.060;105.826;2023-02-17T02:09:47;143.88;;;76.43;;
76357;SDS011;65185;21.060;105.826;2023-02-17T02:12:18;140.63;;;74.25;;
76357;SDS011;65185;21.060;105.826;2023-02-17T02:14:45;146.68;;;78.53;;
76357;SDS011;65185;21.060;105.826;2023-02-17T02:20:01;152.18;;;79.57;;
76357;SDS011;65185;21.060;105.826;2023-02-17T02:25:48;141.02;;;77.45;;
76357;SDS011;65185;21.060;105.826;2023-02-17T02:31:01;151.50;;;82.65;;
76357;SDS011;65185;21.060;105.826;2023-02-17T02:34:19;153.45;;;83.35;;
76357;SDS011;65185;21.060;105.826;2023-02-17T02:36:34;142.95;;;79.20;;
76357;SDS011;65185;21.060;105.826;2023-02-17T02:39:13;155.35;;;81.95;;
76357;SDS011;65185;21.060;105.826;2023-02-17T02:42:02;153.30;;;83.50;;
76357;SDS011;65185;21.060;105.826;2023-02-17T02:44:32;140.15;;;77.97;;
76357;SDS011;65185;21.060;105.826;2023-02-17T02:47:00;145.73;;;79.25;;
76357;SDS011;65185;21.060;105.826;2023-02-17T02:49:30;145.85;;;75.50;;
76357;SDS011;65185;21.060;105.826;2023-02-17T02:54:57;147.80;;;76.93;;
76357;SDS011;65185;21.060;105.826;2023-02-17T03:02:54;134.52;;;70.38;;
76357;SDS011;65185;21.060;105.826;2023-02-17T03:08:08;132.85;;;68.70;;
76357;SDS011;65185;21.060;105.826;2023-02-17T03:10:43;135.45;;;69.85;;
76357;SDS011;65185;21.060;105.826;2023-02-17T03:13:16;135.45;;;70.50;;
76357;SDS011;65185;21.060;105.826;2023-02-17T03:15:44;132.35;;;70.20;;
76357;SDS011;65185;21.060;105.826;2023-02-17T03:18:11;133.40;;;69.10;;
76357;SDS011;65185;21.060;105.826;2023-02-17T03:20:39;126.90;;;67.30;;
76357;SDS011;65185;21.060;105.826;2023-02-17T03:23:15;126.95;;;67.20;;
76357;SDS011;65185;21.060;105.826;2023-02-17T03:25:42;127.13;;;66.32;;
76357;SDS011;65185;21.060;105.826;2023-02-17T03:28:09;138.43;;;71.28;;
76357;SDS011;65185;21.060;105.826;2023-02-17T03:30:36;136.90;;;73.65;;
76357;SDS011;65185;21.060;105.826;2023-02-17T03:33:03;140.35;;;73.03;;
76357;SDS011;65185;21.060;105.826;2023-02-17T03:35:30;141.57;;;73.70;;
76357;SDS011;65185;21.060;105.826;2023-02-17T03:37:56;140.15;;;74.55;;
76357;SDS011;65185;21.060;105.826;2023-02-17T03:40:23;143.20;;;75.70;;
76357;SDS011;65185;21.060;105.826;2023-02-17T03:42:49;140.40;;;76.90;;
76357;SDS011;65185;21.060;105.826;2023-02-17T03:45:16;152.48;;;80.32;;
76357;SDS011;65185;21.060;105.826;2023-02-17T03:47:43;128.73;;;71.35;;
76357;SDS011;65185;21.060;105.826;2023-02-17T03:50:09;146.55;;;78.93;;
76357;SDS011;65185;21.060;105.826;2023-02-17T03:52:36;139.23;;;78.13;;
76357;SDS011;65185;21.060;105.826;2023-02-17T03:55:02;140.48;;;77.93;;
76357;SDS011;65185;21.060;105.826;2023-02-17T03:57:29;145.82;;;80.97;;
76357;SDS011;65185;21.060;105.826;2023-02-17T03:59:56;143.05;;;80.47;;
76357;SDS011;65185;21.060;105.826;2023-02-17T04:02:26;141.63;;;81.30;;
76357;SDS011;65185;21.060;105.826;2023-02-17T04:04:52;158.20;;;86.90;;
76357;SDS011;65185;21.060;105.826;2023-02-17T04:07:19;142.90;;;82.32;;
76357;SDS011;65185;21.060;105.826;2023-02-17T04:09:46;157.55;;;87.85;;
76357;SDS011;65185;21.060;105.826;2023-02-17T04:12:12;141.02;;;82.03;;
76357;SDS011;65185;21.060;105.826;2023-02-17T04:14:39;159.95;;;94.13;;
76357;SDS011;65185;21.060;105.826;2023-02-17T04:17:05;147.65;;;84.53;;
76357;SDS011;65185;21.060;105.826;2023-02-17T04:19:32;147.32;;;84.03;;
76357;SDS011;65185;21.060;105.826;2023-02-17T04:21:59;143.57;;;83.70;;
76357;SDS011;65185;21.060;105.826;2023-02-17T04:24:25;159.07;;;87.75;;
76357;SDS011;65185;21.060;105.826;2023-02-17T04:26:52;158.77;;;89.78;;
76357;SDS011;65185;21.060;105.826;2023-02-17T04:29:19;158.32;;;86.55;;
76357;SDS011;65185;21.060;105.826;2023-02-17T04:31:45;144.80;;;82.68;;
76357;SDS011;65185;21.060;105.826;2023-02-17T04:34:12;160.43;;;88.25;;
76357;SDS011;65185;21.060;105.826;2023-02-17T04:36:38;151.15;;;84.78;;
76357;SDS011;65185;21.060;105.826;2023-02-17T04:39:05;140.02;;;79.40;;
76357;SDS011;65185;21.060;105.826;2023-02-17T04:41:31;158.82;;;88.10;;
76357;SDS011;65185;21.060;105.826;2023-02-17T04:43:58;162.88;;;87.15;;
76357;SDS011;65185;21.060;105.826;2023-02-17T04:46:25;159.60;;;87.13;;
76357;SDS011;65185;21.060;105.826;2023-02-17T04:48:51;157.10;;;89.18;;
76357;SDS011;65185;21.060;105.826;2023-02-17T04:51:18;156.23;;;83.57;;
76357;SDS011;65185;21.060;105.826;2023-02-17T04:53:44;155.32;;;87.20;;
76357;SDS011;65185;21.060;105.826;2023-02-17T04:56:11;151.93;;;83.75;;
76357;SDS011;65185;21.060;105.826;2023-02-17T04:58:38;157.23;;;86.68;;
76357;SDS011;65185;21.060;105.826;2023-02-17T05:01:04;163.68;;;89.90;;
76357;SDS011;65185;21.060;105.826;2023-02-17T05:03:31;147.10;;;82.70;;
76357;SDS011;65185;21.060;105.826;2023-02-17T05:05:57;146.57;;;82.13;;
76357;SDS011;65185;21.060;105.826;2023-02-17T05:08:24;148.88;;;81.30;;
76357;SDS011;65185;21.060;105.826;2023-02-17T05:10:51;142.20;;;81.03;;
76357;SDS011;65185;21.060;105.826;2023-02-17T05:13:18;142.18;;;81.22;;
76357;SDS011;65185;21.060;105.826;2023-02-17T05:15:45;158.15;;;86.88;;
76357;SDS011;65185;21.060;105.826;2023-02-17T05:18:12;146.80;;;80.15;;
76357;SDS011;65185;21.060;105.826;2023-02-17T05:20:39;154.15;;;86.38;;
76357;SDS011;65185;21.060;105.826;2023-02-17T05:23:06;139.60;;;79.25;;
76357;SDS011;65185;21.060;105.826;2023-02-17T05:25:32;141.13;;;80.03;;
76357;SDS011;65185;21.060;105.826;2023-02-17T05:27:59;138.85;;;79.32;;
76357;SDS011;65185;21.060;105.826;2023-02-17T05:30:26;131.45;;;75.22;;
76357;SDS011;65185;21.060;105.826;2023-02-17T05:32:53;136.00;;;76.07;;
76357;SDS011;65185;21.060;105.826;2023-02-17T05:35:20;134.77;;;75.32;;
76357;SDS011;65185;21.060;105.826;2023-02-17T05:37:47;144.25;;;78.60;;
76357;SDS011;65185;21.060;105.826;2023-02-17T05:40:14;149.20;;;82.72;;
76357;SDS011;65185;21.060;105.826;2023-02-17T05:42:40;146.55;;;80.05;;
76357;SDS011;65185;21.060;105.826;2023-02-17T05:45:07;147.00;;;79.80;;
76357;SDS011;65185;21.060;105.826;2023-02-17T05:47:34;138.77;;;77.90;;
76357;SDS011;65185;21.060;105.826;2023-02-17T05:50:01;153.18;;;86.20;;
76357;SDS011;65185;21.060;105.826;2023-02-17T05:52:28;151.38;;;83.10;;
76357;SDS011;65185;21.060;105.826;2023-02-17T05:54:55;151.85;;;79.72;;
76357;SDS011;65185;21.060;105.826;2023-02-17T05:57:21;139.77;;;75.63;;
76357;SDS011;65185;21.060;105.826;2023-02-17T05:59:48;144.35;;;75.38;;
76357;SDS011;65185;21.060;105.826;2023-02-17T06:02:15;135.90;;;75.18;;
76357;SDS011;65185;21.060;105.826;2023-02-17T06:04:41;140.60;;;76.63;;
76357;SDS011;65185;21.060;105.826;2023-02-17T06:07:08;134.18;;;73.10;;
76357;SDS011;65185;21.060;105.826;2023-02-17T06:09:34;126.45;;;72.45;;
76357;SDS011;65185;21.060;105.826;2023-02-17T06:12:01;146.88;;;79.15;;
76357;SDS011;65185;21.060;105.826;2023-02-17T06:14:28;126.43;;;69.45;;
76357;SDS011;65185;21.060;105.826;2023-02-17T06:16:54;138.70;;;76.82;;
76357;SDS011;65185;21.060;105.826;2023-02-17T06:19:21;138.00;;;76.10;;
76357;SDS011;65185;21.060;105.826;2023-02-17T06:21:49;126.03;;;70.63;;
76357;SDS011;65185;21.060;105.826;2023-02-17T06:24:15;135.18;;;73.38;;
76357;SDS011;65185;21.060;105.826;2023-02-17T06:26:42;143.23;;;78.88;;
76357;SDS011;65185;21.060;105.826;2023-02-17T06:29:08;140.85;;;76.72;;
76357;SDS011;65185;21.060;105.826;2023-02-17T06:31:35;151.23;;;77.32;;
76357;SDS011;65185;21.060;105.826;2023-02-17T06:34:01;135.45;;;72.95;;
76357;SDS011;65185;21.060;105.826;2023-02-17T06:36:28;127.82;;;71.45;;
76357;SDS011;65185;21.060;105.826;2023-02-17T06:38:55;154.90;;;79.85;;
76357;SDS011;65185;21.060;105.826;2023-02-17T06:41:21;132.55;;;69.65;;
76357;SDS011;65185;21.060;105.826;2023-02-17T06:43:48;132.32;;;70.72;;
76357;SDS011;65185;21.060;105.826;2023-02-17T06:46:15;128.85;;;69.75;;
76357;SDS011;65185;21.060;105.826;2023-02-17T06:48:41;131.40;;;68.50;;
76357;SDS011;65185;21.060;105.826;2023-02-17T06:51:08;140.32;;;71.75;;
76357;SDS011;65185;21.060;105.826;2023-02-17T06:53:34;132.43;;;70.45;;
76357;SDS011;65185;21.060;105.826;2023-02-17T06:56:01;136.07;;;70.90;;
76357;SDS011;65185;21.060;105.826;2023-02-17T06:58:28;155.63;;;80.63;;
76357;SDS011;65185;21.060;105.826;2023-02-17T07:00:57;134.50;;;71.93;;
76357;SDS011;65185;21.060;105.826;2023-02-17T07:03:23;151.15;;;77.78;;
76357;SDS011;65185;21.060;105.826;2023-02-17T07:05:50;140.82;;;75.95;;
76357;SDS011;65185;21.060;105.826;2023-02-17T07:08:21;139.68;;;79.70;;
76357;SDS011;65185;21.060;105.826;2023-02-17T07:10:47;153.13;;;83.53;;
76357;SDS011;65185;21.060;105.826;2023-02-17T07:13:14;134.05;;;73.32;;
76357;SDS011;65185;21.060;105.826;2023-02-17T07:15:41;134.13;;;73.78;;
76357;SDS011;65185;21.060;105.826;2023-02-17T07:18:07;145.70;;;76.20;;
76357;SDS011;65185;21.060;105.826;2023-02-17T07:20:34;132.75;;;72.22;;
76357;SDS011;65185;21.060;105.826;2023-02-17T07:23:00;140.77;;;74.43;;
76357;SDS011;65185;21.060;105.826;2023-02-17T07:25:27;152.85;;;77.32;;
76357;SDS011;65185;21.060;105.826;2023-02-17T07:27:53;151.20;;;77.47;;
76357;SDS011;65185;21.060;105.826;2023-02-17T07:30:20;144.13;;;76.22;;
76357;SDS011;65185;21.060;105.826;2023-02-17T07:32:47;149.90;;;75.07;;
76357;SDS011;65185;21.060;105.826;2023-02-17T07:35:13;125.30;;;67.43;;
76357;SDS011;65185;21.060;105.826;2023-02-17T07:37:40;137.93;;;74.32;;
76357;SDS011;65185;21.060;105.826;2023-02-17T07:40:07;127.15;;;71.82;;
76357;SDS011;65185;21.060;105.826;2023-02-17T07:42:33;141.18;;;76.20;;
76357;SDS011;65185;21.060;105.826;2023-02-17T07:45:00;140.73;;;75.80;;
76357;SDS011;65185;21.060;105.826;2023-02-17T07:47:27;143.07;;;74.38;;
76357;SDS011;65185;21.060;105.826;2023-02-17T07:49:53;147.15;;;78.03;;
76357;SDS011;65185;21.060;105.826;2023-02-17T07:52:20;123.97;;;67.90;;
76357;SDS011;65185;21.060;105.826;2023-02-17T07:54:46;148.32;;;79.35;;
76357;SDS011;65185;21.060;105.826;2023-02-17T07:57:13;143.57;;;76.28;;
76357;SDS011;65185;21.060;105.826;2023-02-17T07:59:40;160.38;;;82.15;;
76357;SDS011;65185;21.060;105.826;2023-02-17T08:02:08;154.95;;;83.07;;
76357;SDS011;65185;21.060;105.826;2023-02-17T08:04:36;133.27;;;73.13;;
76357;SDS011;65185;21.060;105.826;2023-02-17T08:07:03;149.88;;;77.65;;
76357;SDS011;65185;21.060;105.826;2023-02-17T08:09:30;153.75;;;81.57;;
76357;SDS011;65185;21.060;105.826;2023-02-17T08:12:15;143.95;;;74.57;;
76357;SDS011;65185;21.060;105.826;2023-02-17T08:15:02;160.82;;;78.68;;
76357;SDS011;65185;21.060;105.826;2023-02-17T08:17:29;144.30;;;76.47;;
76357;SDS011;65185;21.060;105.826;2023-02-17T08:19:56;145.50;;;79.55;;
76357;SDS011;65185;21.060;105.826;2023-02-17T08:22:23;144.50;;;77.53;;
76357;SDS011;65185;21.060;105.826;2023-02-17T08:27:47;154.98;;;84.63;;
76357;SDS011;65185;21.060;105.826;2023-02-17T08:30:14;133.75;;;75.63;;
76357;SDS011;65185;21.060;105.826;2023-02-17T08:32:41;131.55;;;76.10;;
76357;SDS011;65185;21.060;105.826;2023-02-17T08:35:09;145.18;;;77.43;;
76357;SDS011;65185;21.060;105.826;2023-02-17T08:37:36;133.32;;;73.05;;
76357;SDS011;65185;21.060;105.826;2023-02-17T08:40:02;153.65;;;81.47;;
76357;SDS011;65185;21.060;105.826;2023-02-17T08:42:32;137.85;;;75.95;;
76357;SDS011;65185;21.060;105.826;2023-02-17T08:44:59;142.05;;;78.15;;
76357;SDS011;65185;21.060;105.826;2023-02-17T08:47:25;138.75;;;77.63;;
76357;SDS011;65185;21.060;105.826;2023-02-17T08:49:52;135.13;;;76.55;;
76357;SDS011;65185;21.060;105.826;2023-02-17T08:52:19;139.98;;;83.60;;
76357;SDS011;65185;21.060;105.826;2023-02-17T08:54:45;150.48;;;85.60;;
76357;SDS011;65185;21.060;105.826;2023-02-17T08:57:12;146.70;;;83.53;;
76357;SDS011;65185;21.060;105.826;2023-02-17T08:59:38;177.63;;;96.60;;
76357;SDS011;65185;21.060;105.826;2023-02-17T09:02:05;160.05;;;87.95;;
76357;SDS011;65185;21.060;105.826;2023-02-17T09:04:32;152.18;;;85.85;;
76357;SDS011;65185;21.060;105.826;2023-02-17T09:07:09;156.95;;;87.38;;
76357;SDS011;65185;21.060;105.826;2023-02-17T09:09:37;151.18;;;83.57;;
76357;SDS011;65185;21.060;105.826;2023-02-17T09:12:04;151.32;;;81.75;;
76357;SDS011;65185;21.060;105.826;2023-02-17T09:14:31;159.70;;;88.68;;
76357;SDS011;65185;21.060;105.826;2023-02-17T09:16:58;154.27;;;94.38;;
76357;SDS011;65185;21.060;105.826;2023-02-17T09:19:25;187.60;;;94.82;;
76357;SDS011;65185;21.060;105.826;2023-02-17T09:21:51;167.02;;;87.70;;
76357;SDS011;65185;21.060;105.826;2023-02-17T09:24:23;186.63;;;96.95;;
76357;SDS011;65185;21.060;105.826;2023-02-17T09:26:49;185.90;;;94.70;;
76357;SDS011;65185;21.060;105.826;2023-02-17T09:29:16;174.77;;;89.10;;
76357;SDS011;65185;21.060;105.826;2023-02-17T09:31:43;161.70;;;80.22;;
76357;SDS011;65185;21.060;105.826;2023-02-17T09:34:10;162.25;;;80.00;;
76357;SDS011;65185;21.060;105.826;2023-02-17T09:36:38;153.70;;;76.57;;
76357;SDS011;65185;21.060;105.826;2023-02-17T09:39:05;143.85;;;73.20;;
76357;SDS011;65185;21.060;105.826;2023-02-17T09:41:36;141.55;;;72.07;;
76357;SDS011;65185;21.060;105.826;2023-02-17T09:44:04;141.52;;;75.65;;
76357;SDS011;65185;21.060;105.826;2023-02-17T09:46:59;145.68;;;77.95;;
76357;SDS011;65185;21.060;105.826;2023-02-17T09:49:35;146.82;;;78.18;;
76357;SDS011;65185;21.060;105.826;2023-02-17T09:52:11;154.05;;;77.38;;
76357;SDS011;65185;21.060;105.826;2023-02-17T09:54:46;150.95;;;77.97;;
76357;SDS011;65185;21.060;105.826;2023-02-17T09:57:23;145.35;;;75.13;;
76357;SDS011;65185;21.060;105.826;2023-02-17T09:59:54;157.10;;;76.97;;
76357;SDS011;65185;21.060;105.826;2023-02-17T10:02:48;156.13;;;76.93;;
76357;SDS011;65185;21.060;105.826;2023-02-17T10:05:22;143.25;;;74.40;;
76357;SDS011;65185;21.060;105.826;2023-02-17T10:08:13;137.45;;;74.88;;
76357;SDS011;65185;21.060;105.826;2023-02-17T10:10:49;140.27;;;75.60;;
76357;SDS011;65185;21.060;105.826;2023-02-17T10:13:21;141.95;;;76.15;;
76357;SDS011;65185;21.060;105.826;2023-02-17T10:15:51;136.15;;;72.25;;
76357;SDS011;65185;21.060;105.826;2023-02-17T10:18:33;154.18;;;78.88;;
76357;SDS011;65185;21.060;105.826;2023-02-17T10:21:11;142.30;;;76.72;;
76357;SDS011;65185;21.060;105.826;2023-02-17T10:23:48;132.57;;;73.15;;
76357;SDS011;65185;21.060;105.826;2023-02-17T10:26:24;141.48;;;77.32;;
76357;SDS011;65185;21.060;105.826;2023-02-17T10:31:55;130.07;;;72.35;;
76357;SDS011;65185;21.060;105.826;2023-02-17T10:40:12;132.68;;;74.25;;
76357;SDS011;65185;21.060;105.826;2023-02-17T10:42:48;126.38;;;71.18;;
76357;SDS011;65185;21.060;105.826;2023-02-17T10:48:18;128.45;;;71.82;;
76357;SDS011;65185;21.060;105.826;2023-02-17T10:50:48;134.98;;;74.45;;
76357;SDS011;65185;21.060;105.826;2023-02-17T10:53:20;133.25;;;76.50;;
76357;SDS011;65185;21.060;105.826;2023-02-17T11:00:52;157.98;;;79.65;;
76357;SDS011;65185;21.060;105.826;2023-02-17T11:03:22;132.70;;;71.88;;
76357;SDS011;65185;21.060;105.826;2023-02-17T11:06:01;135.95;;;76.10;;
76357;SDS011;65185;21.060;105.826;2023-02-17T11:08:34;152.15;;;79.97;;
76357;SDS011;65185;21.060;105.826;2023-02-17T11:16:44;138.68;;;76.55;;
76357;SDS011;65185;21.060;105.826;2023-02-17T11:21:54;150.80;;;83.38;;
76357;SDS011;65185;21.060;105.826;2023-02-17T11:26:54;149.48;;;80.53;;
76357;SDS011;65185;21.060;105.826;2023-02-17T11:29:25;162.35;;;86.05;;
76357;SDS011;65185;21.060;105.826;2023-02-17T11:32:06;156.25;;;83.63;;
76357;SDS011;65185;21.060;105.826;2023-02-17T11:34:40;145.15;;;79.85;;
76357;SDS011;65185;21.060;105.826;2023-02-17T11:39:47;143.10;;;78.75;;
76357;SDS011;65185;21.060;105.826;2023-02-17T11:42:36;140.75;;;76.40;;
76357;SDS011;65185;21.060;105.826;2023-02-17T11:45:13;147.02;;;83.15;;
76357;SDS011;65185;21.060;105.826;2023-02-17T11:47:49;145.85;;;81.28;;
76357;SDS011;65185;21.060;105.826;2023-02-17T11:50:31;158.05;;;87.35;;
76357;SDS011;65185;21.060;105.826;2023-02-17T12:01:35;173.52;;;94.53;;
76357;SDS011;65185;21.060;105.826;2023-02-17T12:04:32;175.07;;;95.20;;
76357;SDS011;65185;21.060;105.826;2023-02-17T12:10:04;174.20;;;94.97;;
76357;SDS011;65185;21.060;105.826;2023-02-17T12:18:47;167.55;;;94.78;;
76357;SDS011;65185;21.060;105.826;2023-02-17T12:21:31;189.65;;;103.97;;
76357;SDS011;65185;21.060;105.826;2023-02-17T12:24:10;187.85;;;103.28;;
76357;SDS011;65185;21.060;105.826;2023-02-17T12:35:22;181.75;;;98.00;;
76357;SDS011;65185;21.060;105.826;2023-02-17T12:37:57;205.70;;;105.68;;
76357;SDS011;65185;21.060;105.826;2023-02-17T12:40:38;196.93;;;102.35;;
76357;SDS011;65185;21.060;105.826;2023-02-17T12:43:18;205.00;;;109.47;;
76357;SDS011;65185;21.060;105.826;2023-02-17T12:48:23;183.13;;;103.82;;
76357;SDS011;65185;21.060;105.826;2023-02-17T12:53:44;177.75;;;95.35;;
76357;SDS011;65185;21.060;105.826;2023-02-17T12:56:22;195.68;;;98.68;;
76357;SDS011;65185;21.060;105.826;2023-02-17T12:58:53;170.50;;;89.65;;
76357;SDS011;65185;21.060;105.826;2023-02-17T13:01:29;168.70;;;90.22;;
76357;SDS011;65185;21.060;105.826;2023-02-17T13:04:00;181.45;;;91.03;;
76357;SDS011;65185;21.060;105.826;2023-02-17T13:06:36;159.63;;;84.80;;
76357;SDS011;65185;21.060;105.826;2023-02-17T13:12:08;149.60;;;80.47;;
76357;SDS011;65185;21.060;105.826;2023-02-17T13:14:46;153.80;;;81.35;;
76357;SDS011;65185;21.060;105.826;2023-02-17T13:23:02;194.43;;;94.20;;
76357;SDS011;65185;21.060;105.826;2023-02-17T13:25:32;170.65;;;88.70;;
76357;SDS011;65185;21.060;105.826;2023-02-17T13:28:00;181.38;;;87.95;;
76357;SDS011;65185;21.060;105.826;2023-02-17T13:30:44;163.75;;;85.65;;
76357;SDS011;65185;21.060;105.826;2023-02-17T13:35:49;152.82;;;84.50;;
76357;SDS011;65185;21.060;105.826;2023-02-17T13:38:29;161.20;;;84.45;;
76357;SDS011;65185;21.060;105.826;2023-02-17T13:41:12;171.02;;;86.32;;
76357;SDS011;65185;21.060;105.826;2023-02-17T13:43:42;186.55;;;94.70;;
76357;SDS011;65185;21.060;105.826;2023-02-17T13:46:15;182.60;;;92.13;;
76357;SDS011;65185;21.060;105.826;2023-02-17T13:48:59;183.90;;;94.95;;
76357;SDS011;65185;21.060;105.826;2023-02-17T13:51:31;203.13;;;98.15;;
76357;SDS011;65185;21.060;105.826;2023-02-17T13:54:06;167.50;;;91.90;;
76357;SDS011;65185;21.060;105.826;2023-02-17T13:56:35;167.13;;;88.28;;
76357;SDS011;65185;21.060;105.826;2023-02-17T13:59:05;170.60;;;86.70;;
76357;SDS011;65185;21.060;105.826;2023-02-17T14:01:44;156.40;;;83.93;;
76357;SDS011;65185;21.060;105.826;2023-02-17T14:06:51;145.18;;;76.18;;
76357;SDS011;65185;21.060;105.826;2023-02-17T14:11:59;128.82;;;69.50;;
76357;SDS011;65185;21.060;105.826;2023-02-17T14:14:36;123.40;;;66.30;;
76357;SDS011;65185;21.060;105.826;2023-02-17T14:17:06;129.23;;;69.25;;
76357;SDS011;65185;21.060;105.826;2023-02-17T14:19:55;118.45;;;62.03;;
76357;SDS011;65185;21.060;105.826;2023-02-17T14:22:27;111.32;;;62.13;;
76357;SDS011;65185;21.060;105.826;2023-02-17T14:27:44;115.05;;;60.83;;
76357;SDS011;65185;21.060;105.826;2023-02-17T14:30:14;113.30;;;61.45;;
76357;SDS011;65185;21.060;105.826;2023-02-17T14:33:06;117.82;;;60.95;;
76357;SDS011;65185;21.060;105.826;2023-02-17T14:35:53;119.47;;;64.07;;
76357;SDS011;65185;21.060;105.826;2023-02-17T14:40:56;112.78;;;63.22;;
76357;SDS011;65185;21.060;105.826;2023-02-17T14:43:25;101.10;;;57.85;;
76357;SDS011;65185;21.060;105.826;2023-02-17T14:45:54;100.07;;;54.28;;
76357;SDS011;65185;21.060;105.826;2023-02-17T14:48:21;84.60;;;45.33;;
76357;SDS011;65185;21.060;105.826;2023-02-17T14:50:50;92.57;;;49.65;;
76357;SDS011;65185;21.060;105.826;2023-02-17T14:59:17;87.00;;;45.58;;
76357;SDS011;65185;21.060;105.826;2023-02-17T15:01:44;85.85;;;46.40;;
76357;SDS011;65185;21.060;105.826;2023-02-17T15:04:10;91.47;;;46.92;;
76357;SDS011;65185;21.060;105.826;2023-02-17T15:09:12;84.68;;;46.22;;
76357;SDS011;65185;21.060;105.826;2023-02-17T15:11:42;80.10;;;42.70;;
76357;SDS011;65185;21.060;105.826;2023-02-17T15:14:17;80.95;;;44.03;;
76357;SDS011;65185;21.060;105.826;2023-02-17T15:16:45;77.88;;;38.95;;
76357;SDS011;65185;21.060;105.826;2023-02-17T15:19:13;72.88;;;37.58;;
76357;SDS011;65185;21.060;105.826;2023-02-17T15:21:43;70.35;;;37.10;;
76357;SDS011;65185;21.060;105.826;2023-02-17T15:24:16;67.82;;;33.63;;
76357;SDS011;65185;21.060;105.826;2023-02-17T15:26:48;62.63;;;32.95;;
76357;SDS011;65185;21.060;105.826;2023-02-17T15:29:16;69.18;;;36.33;;
76357;SDS011;65185;21.060;105.826;2023-02-17T15:31:45;70.05;;;35.30;;
76357;SDS011;65185;21.060;105.826;2023-02-17T15:34:14;60.47;;;32.85;;
76357;SDS011;65185;21.060;105.826;2023-02-17T15:36:42;62.22;;;32.72;;
76357;SDS011;65185;21.060;105.826;2023-02-17T15:39:10;65.47;;;34.85;;
76357;SDS011;65185;21.060;105.826;2023-02-17T15:41:44;70.78;;;38.45;;
76357;SDS011;65185;21.060;105.826;2023-02-17T15:44:14;65.63;;;33.95;;
76357;SDS011;65185;21.060;105.826;2023-02-17T15:46:44;63.15;;;35.00;;
76357;SDS011;65185;21.060;105.826;2023-02-17T15:49:12;66.65;;;35.33;;
76357;SDS011;65185;21.060;105.826;2023-02-17T15:51:39;69.70;;;35.17;;
76357;SDS011;65185;21.060;105.826;2023-02-17T15:54:06;66.53;;;33.70;;
76357;SDS011;65185;21.060;105.826;2023-02-17T15:56:40;66.68;;;33.75;;
76357;SDS011;65185;21.060;105.826;2023-02-17T15:59:21;68.75;;;33.17;;
76357;SDS011;65185;21.060;105.826;2023-02-17T16:01:49;67.30;;;34.47;;